Time;durP1;ratioP1;P1;durP2;ratioP2;P2;SDS_P1;SDS_P2;PMS_P1;PMS_P2;Temp;Humidity;BMP_temperature;BMP_pressure;BME280_temperature;BME280_humidity;BME280_pressure;Samples;Min_cycle;Max_cycle;Signal;HPM_P1;HPM_P2
2021/06/27 00:00:13;;;;;;;39.33;35.80;;;15.80;99.90;;;;;;5094701;28;20856;-83
2021/06/27 00:02:41;;;;;;;41.80;38.20;;;15.60;99.90;;;;;;5095547;28;20492;-83
2021/06/27 00:05:11;;;;;;;48.67;44.90;;;15.70;99.90;;;;;;5095362;28;20494;-83
2021/06/27 00:07:38;;;;;;;53.23;49.30;;;15.60;99.90;;;;;;5095384;28;20544;-83
2021/06/27 00:10:09;;;;;;;54.80;50.27;;;15.50;99.90;;;;;;5094152;28;20951;-84
2021/06/27 00:12:36;;;;;;;60.53;56.40;;;15.50;99.90;;;;;;5095496;28;20451;-83
2021/06/27 00:15:05;;;;;;;66.90;62.40;;;15.40;99.90;;;;;;5095563;28;20852;-83
2021/06/27 00:17:32;;;;;;;59.63;55.47;;;15.40;99.90;;;;;;5095230;28;20568;-83
2021/06/27 00:20:00;;;;;;;66.17;61.30;;;15.40;99.90;;;;;;5095356;28;20465;-83
2021/06/27 00:22:27;;;;;;;61.90;57.70;;;15.30;99.90;;;;;;5095001;28;20538;-82
2021/06/27 00:24:54;;;;;;;51.70;47.83;;;15.20;99.90;;;;;;5093797;28;20543;-84
2021/06/27 00:27:21;;;;;;;63.00;58.50;;;15.10;99.90;;;;;;5095098;28;20510;-84
2021/06/27 00:29:48;;;;;;;78.03;73.00;;;15.10;99.90;;;;;;5095015;28;20538;-83
2021/06/27 00:32:15;;;;;;;73.73;68.10;;;15.00;99.90;;;;;;5094982;28;20555;-84
2021/06/27 00:34:42;;;;;;;77.73;72.90;;;15.10;99.90;;;;;;5095022;28;20542;-84
2021/06/27 00:37:10;;;;;;;77.37;72.17;;;15.20;99.90;;;;;;5094620;28;20507;-84
2021/06/27 00:39:37;;;;;;;70.47;65.90;;;14.90;99.90;;;;;;5093512;28;20952;-83
2021/06/27 00:42:05;;;;;;;71.43;66.83;;;14.90;99.90;;;;;;5094696;28;20484;-83
2021/06/27 00:44:32;;;;;;;70.97;65.57;;;14.90;99.90;;;;;;5094646;28;20521;-83
2021/06/27 00:46:58;;;;;;;67.70;62.60;;;15.10;99.90;;;;;;5094556;28;20464;-83
2021/06/27 00:49:25;;;;;;;60.00;55.30;;;15.00;99.90;;;;;;5094600;28;20830;-84
2021/06/27 00:51:52;;;;;;;58.20;53.80;;;14.90;99.90;;;;;;5094494;28;20805;-83
2021/06/27 00:54:20;;;;;;;50.20;46.30;;;14.80;99.90;;;;;;5093088;28;20544;-84
2021/06/27 00:56:47;;;;;;;56.93;52.60;;;14.80;99.90;;;;;;5094471;28;20552;-83
2021/06/27 00:59:14;;;;;;;60.07;55.57;;;14.80;99.90;;;;;;5094300;28;20488;-84
2021/06/27 01:01:41;;;;;;;48.17;43.60;;;14.70;99.90;;;;;;5094602;28;20513;-83
2021/06/27 01:04:08;;;;;;;56.57;51.83;;;14.60;99.90;;;;;;5094511;28;20518;-84
2021/06/27 01:06:35;;;;;;;50.30;46.20;;;14.70;99.90;;;;;;5094084;28;20497;-84
2021/06/27 01:09:03;;;;;;;59.10;54.20;;;14.60;99.90;;;;;;5091404;28;20487;-84
2021/06/27 01:11:32;;;;;;;53.30;49.00;;;14.60;99.90;;;;;;5073940;28;20539;-83
2021/06/27 01:14:01;;;;;;;48.73;43.90;;;14.50;99.90;;;;;;5073992;28;20501;-83
2021/06/27 01:16:28;;;;;;;49.60;45.23;;;14.50;99.90;;;;;;5073844;28;20511;-83
2021/06/27 01:18:55;;;;;;;46.40;42.50;;;14.40;99.90;;;;;;5073695;28;21003;-84
2021/06/27 01:21:24;;;;;;;55.33;51.03;;;14.30;99.90;;;;;;5073478;28;20870;-83
2021/06/27 01:23:51;;;;;;;53.90;49.87;;;14.40;99.90;;;;;;5072548;28;20592;-83
2021/06/27 01:26:17;;;;;;;54.63;50.33;;;14.30;99.90;;;;;;5073643;28;20962;-84
2021/06/27 01:28:44;;;;;;;79.90;74.30;;;14.20;99.90;;;;;;5073561;28;20456;-84
2021/06/27 01:31:11;;;;;;;83.73;78.33;;;14.30;99.90;;;;;;5073601;28;20543;-83
2021/06/27 01:33:39;;;;;;;83.77;78.00;;;14.30;99.90;;;;;;5073428;28;21032;-84
2021/06/27 01:36:06;;;;;;;79.00;73.70;;;14.30;99.90;;;;;;5073354;28;20472;-83
2021/06/27 01:38:36;;;;;;;81.57;75.87;;;14.20;99.90;;;;;;5073289;28;21060;-84
2021/06/27 01:41:05;;;;;;;68.07;63.30;;;14.10;99.90;;;;;;5072218;28;20458;-83
2021/06/27 01:43:31;;;;;;;81.77;76.13;;;14.00;99.90;;;;;;5037926;28;20506;-83
2021/06/27 01:46:01;;;;;;;86.17;79.33;;;14.10;99.90;;;;;;5073255;28;20485;-84
2021/06/27 01:48:30;;;;;;;78.63;73.47;;;14.10;99.90;;;;;;5073187;28;20453;-84
2021/06/27 01:50:59;;;;;;;68.70;63.90;;;14.20;99.90;;;;;;5073281;28;20485;-84
2021/06/27 01:53:28;;;;;;;76.20;70.87;;;14.20;99.90;;;;;;5073342;28;20479;-84
2021/06/27 01:56:07;;;;;;;84.23;78.43;;;14.20;99.90;;;;;;5071899;28;20547;-82
2021/06/27 01:58:36;;;;;;;72.47;67.67;;;14.10;99.90;;;;;;5073012;28;21007;-82
2021/06/27 02:01:05;;;;;;;78.53;72.23;;;14.10;99.90;;;;;;5072813;28;21086;-84
2021/06/27 02:03:32;;;;;;;74.07;69.20;;;14.00;99.90;;;;;;5072915;28;20873;-83
2021/06/27 02:05:59;;;;;;;81.43;76.13;;;13.90;99.90;;;;;;5072840;28;20485;-84
2021/06/27 02:08:32;;;;;;;78.60;73.03;;;14.00;99.90;;;;;;5086895;28;20587;-84
2021/06/27 02:11:00;;;;;;;80.20;74.97;;;13.90;99.90;;;;;;5091834;28;20811;-83
2021/06/27 02:13:27;;;;;;;82.77;76.77;;;13.90;99.90;;;;;;5092955;28;20501;-84
2021/06/27 02:15:54;;;;;;;75.37;69.87;;;13.90;99.90;;;;;;5093148;28;20459;-84
2021/06/27 02:18:33;;;;;;;71.40;66.40;;;14.00;99.90;;;;;;5092888;28;20476;-83
2021/06/27 02:21:02;;;;;;;76.03;71.07;;;13.90;99.90;;;;;;5092968;28;20455;-85
2021/06/27 02:23:30;;;;;;;81.20;76.00;;;13.80;99.90;;;;;;5092586;28;20454;-84
2021/06/27 02:25:57;;;;;;;57.70;53.50;;;13.80;99.90;;;;;;5091794;28;20796;-84
2021/06/27 02:28:26;;;;;;;58.47;54.17;;;13.70;99.90;;;;;;5092880;28;20485;-84
2021/06/27 02:30:54;;;;;;;67.93;62.77;;;13.60;99.90;;;;;;5092991;28;20536;-84
2021/06/27 02:33:21;;;;;;;70.80;65.93;;;13.60;99.90;;;;;;5092838;28;20460;-84
2021/06/27 02:35:48;;;;;;;80.00;74.87;;;13.50;99.90;;;;;;5092776;28;20475;-84
2021/06/27 02:38:15;;;;;;;85.67;80.37;;;13.50;99.90;;;;;;5092960;28;20970;-84
2021/06/27 02:40:43;;;;;;;82.70;77.07;;;13.60;99.90;;;;;;5091422;28;20542;-84
2021/06/27 02:43:11;;;;;;;91.13;85.60;;;13.50;99.90;;;;;;5092862;28;20874;-83
2021/06/27 02:45:40;;;;;;;97.93;92.20;;;13.50;99.90;;;;;;5093086;28;20464;-84
2021/06/27 02:48:08;;;;;;;92.90;87.27;;;13.50;99.90;;;;;;5092784;28;20538;-84
2021/06/27 02:50:36;;;;;;;108.70;102.60;;;13.40;99.90;;;;;;5092926;28;20552;-84
2021/06/27 02:53:03;;;;;;;110.73;104.63;;;13.50;99.90;;;;;;5092660;28;20461;-84
2021/06/27 02:55:31;;;;;;;106.10;99.60;;;13.50;99.90;;;;;;5091751;28;20479;-85
2021/06/27 02:57:58;;;;;;;100.73;94.90;;;13.50;99.90;;;;;;5092616;28;20585;-84
2021/06/27 03:00:25;;;;;;;90.50;84.60;;;13.30;99.90;;;;;;5092736;28;20955;-84
2021/06/27 03:02:53;;;;;;;102.83;96.10;;;13.40;99.90;;;;;;5092735;28;20495;-84
2021/06/27 03:05:20;;;;;;;124.57;118.00;;;13.30;99.90;;;;;;5092499;28;20509;-84
2021/06/27 03:07:47;;;;;;;133.17;125.97;;;13.30;99.90;;;;;;5092651;28;20590;-84
2021/06/27 03:10:16;;;;;;;126.37;119.30;;;13.40;99.90;;;;;;5079872;28;20475;-84
2021/06/27 03:12:44;;;;;;;127.43;120.57;;;13.30;99.90;;;;;;5072406;28;20581;-83
2021/06/27 03:15:13;;;;;;;128.67;121.57;;;13.30;99.90;;;;;;5072294;28;20449;-84
2021/06/27 03:17:41;;;;;;;140.60;133.50;;;13.40;99.90;;;;;;5072287;28;20466;-83
2021/06/27 03:20:11;;;;;;;136.53;128.77;;;13.50;99.90;;;;;;5072152;28;20526;-83
2021/06/27 03:22:39;;;;;;;137.00;129.10;;;13.50;99.90;;;;;;5072393;28;21187;-84
2021/06/27 03:25:08;;;;;;;140.50;133.30;;;13.60;99.90;;;;;;5071048;28;20460;-83
2021/06/27 03:27:35;;;;;;;126.30;119.83;;;13.70;99.90;;;;;;5072138;28;20460;-83
2021/06/27 03:30:02;;;;;;;123.43;116.50;;;13.70;99.90;;;;;;5072183;28;20512;-84
2021/06/27 03:32:29;;;;;;;134.77;127.70;;;13.90;99.90;;;;;;5072191;28;20559;-84
2021/06/27 03:34:56;;;;;;;142.50;133.70;;;14.10;99.90;;;;;;5072167;28;20516;-84
2021/06/27 03:37:24;;;;;;;141.83;134.43;;;14.20;99.90;;;;;;5075753;28;20496;-83
2021/06/27 03:39:51;;;;;;;144.30;136.80;;;14.50;99.90;;;;;;5074389;28;20488;-84
2021/06/27 03:42:18;;;;;;;143.80;136.40;;;14.60;99.90;;;;;;5075623;28;20460;-84
2021/06/27 03:44:45;;;;;;;141.73;134.13;;;14.80;99.90;;;;;;5075672;28;20853;-85
2021/06/27 03:47:12;;;;;;;121.97;115.03;;;15.00;99.90;;;;;;5075444;28;20522;-83
2021/06/27 03:49:39;;;;;;;78.63;73.27;;;15.10;99.90;;;;;;5075577;28;20542;-84
2021/06/27 03:52:06;;;;;;;78.97;73.63;;;15.20;99.90;;;;;;5075329;28;20541;-84
2021/06/27 03:54:35;;;;;;;43.03;38.57;;;15.40;99.90;;;;;;5074323;28;20456;-84
2021/06/27 03:57:02;;;;;;;42.63;38.23;;;15.50;99.90;;;;;;5075423;28;20488;-83
2021/06/27 03:59:29;;;;;;;37.07;33.13;;;15.70;99.90;;;;;;5075323;28;20532;-84
2021/06/27 04:01:55;;;;;;;46.63;32.43;;;15.70;99.90;;;;;;5075406;28;20456;-80
2021/06/27 04:04:22;;;;;;;38.33;29.37;;;15.70;99.90;;;;;;5075348;28;20457;-84
2021/06/27 04:06:49;;;;;;;34.00;28.50;;;15.90;99.90;;;;;;5091957;28;20452;-83
2021/06/27 04:09:15;;;;;;;37.20;29.20;;;15.90;99.90;;;;;;5094302;28;20809;-81
2021/06/27 04:11:44;;;;;;;37.03;27.63;;;15.90;99.90;;;;;;5095558;28;20444;-79
2021/06/27 04:14:10;;;;;;;38.07;28.17;;;16.00;99.90;;;;;;5095517;28;20455;-74
2021/06/27 04:16:37;;;;;;;36.83;24.10;;;16.00;99.90;;;;;;5095346;28;20457;-78
2021/06/27 04:19:04;;;;;;;33.70;25.60;;;16.10;99.90;;;;;;5095248;28;20492;-79
2021/06/27 04:21:31;;;;;;;36.27;24.37;;;16.10;99.90;;;;;;5094650;28;20445;-78
2021/06/27 04:23:57;;;;;;;35.67;27.37;;;16.10;99.90;;;;;;5093971;28;20942;-79
2021/06/27 04:26:24;;;;;;;41.30;30.40;;;16.10;99.90;;;;;;5095233;28;20452;-78
2021/06/27 04:28:52;;;;;;;40.40;26.03;;;16.20;99.90;;;;;;5094919;28;20463;-79
2021/06/27 04:31:19;;;;;;;35.83;23.63;;;16.10;99.90;;;;;;5095207;28;20456;-79
2021/06/27 04:33:46;;;;;;;34.67;21.80;;;16.10;99.90;;;;;;5094905;28;20454;-79
2021/06/27 04:36:13;;;;;;;35.20;29.70;;;16.20;99.90;;;;;;5094939;28;20457;-81
2021/06/27 04:38:40;;;;;;;39.53;33.07;;;16.20;99.90;;;;;;5094734;28;21013;-81
2021/06/27 04:41:06;;;;;;;45.77;33.90;;;16.30;99.90;;;;;;5093513;28;20543;-79
2021/06/27 04:43:33;;;;;;;46.70;41.80;;;16.30;99.90;;;;;;5094725;28;20457;-82
2021/06/27 04:46:01;;;;;;;44.80;38.70;;;16.40;99.90;;;;;;5094396;28;20816;-77
2021/06/27 04:48:28;;;;;;;48.60;43.67;;;16.50;99.90;;;;;;5094862;28;20548;-80
2021/06/27 04:50:55;;;;;;;43.97;39.03;;;16.50;99.90;;;;;;5094577;28;20457;-80
2021/06/27 04:53:23;;;;;;;47.57;42.87;;;16.50;99.90;;;;;;5094649;28;20965;-78
2021/06/27 04:55:50;;;;;;;41.93;34.20;;;16.60;99.90;;;;;;5093278;28;20457;-81
2021/06/27 04:58:16;;;;;;;43.37;32.70;;;16.70;99.90;;;;;;5094370;28;20491;-80
2021/06/27 05:00:45;;;;;;;38.87;34.77;;;16.60;99.90;;;;;;5094414;28;20997;-82
2021/06/27 05:03:13;;;;;;;39.87;34.60;;;16.70;99.90;;;;;;5094324;28;20506;-78
2021/06/27 05:05:39;;;;;;;43.70;37.47;;;16.70;99.90;;;;;;5094280;28;20473;-79
2021/06/27 05:08:07;;;;;;;39.70;31.07;;;16.90;99.90;;;;;;5093659;28;20442;-81
2021/06/27 05:10:33;;;;;;;42.40;28.83;;;16.80;99.90;;;;;;5092852;28;20483;-77
2021/06/27 05:13:00;;;;;;;36.23;27.53;;;17.00;99.90;;;;;;5094162;28;20458;-76
2021/06/27 05:15:27;;;;;;;35.10;19.47;;;17.10;99.90;;;;;;5094077;28;20453;-77
2021/06/27 05:17:54;;;;;;;38.37;19.43;;;17.10;99.90;;;;;;5094260;28;20453;-80
2021/06/27 05:20:23;;;;;;;43.30;19.97;;;17.30;99.90;;;;;;5094130;28;20452;-78
2021/06/27 05:22:49;;;;;;;36.20;15.37;;;17.60;99.90;;;;;;5094098;28;20473;-80
2021/06/27 05:25:16;;;;;;;42.03;14.27;;;17.90;99.90;;;;;;5092680;28;20929;-79
2021/06/27 05:27:43;;;;;;;38.90;12.60;;;18.30;96.10;;;;;;5093932;28;20450;-76
2021/06/27 05:30:11;;;;;;;37.23;11.77;;;18.80;92.90;;;;;;5093799;28;20497;-80
2021/06/27 05:32:38;;;;;;;44.83;11.93;;;19.20;81.00;;;;;;5093905;28;20949;-81
2021/06/27 05:35:06;;;;;;;44.47;11.20;;;19.60;72.00;;;;;;5093832;28;20483;-79
2021/06/27 05:37:34;;;;;;;47.40;11.90;;;20.20;66.50;;;;;;5093878;28;20452;-81
2021/06/27 05:40:02;;;;;;;49.97;12.30;;;20.50;63.20;;;;;;5092236;28;20456;-84
2021/06/27 05:42:29;;;;;;;51.90;12.10;;;20.80;54.00;;;;;;5093803;28;20484;-82
2021/06/27 05:44:56;;;;;;;55.87;12.90;;;20.90;54.10;;;;;;5093726;28;20454;-77
2021/06/27 05:47:23;;;;;;;55.43;12.57;;;21.20;54.30;;;;;;5093883;28;20790;-78
2021/06/27 05:49:49;;;;;;;58.10;12.77;;;21.60;49.30;;;;;;5093589;28;20481;-77
2021/06/27 05:52:16;;;;;;;59.63;13.60;;;22.10;46.40;;;;;;5093388;28;20453;-80
2021/06/27 05:54:44;;;;;;;60.77;13.87;;;22.40;46.60;;;;;;5092244;28;20457;-78
2021/06/27 05:57:11;;;;;;;63.67;15.00;;;22.70;42.00;;;;;;5093250;28;20454;-75
2021/06/27 05:59:38;;;;;;;63.27;14.70;;;22.40;41.40;;;;;;5092939;28;20468;-76
2021/06/27 06:02:05;;;;;;;63.57;15.13;;;22.60;43.10;;;;;;5093380;28;20941;-80
2021/06/27 06:04:32;;;;;;;65.27;15.03;;;22.40;45.20;;;;;;5093125;28;20428;-78
2021/06/27 06:06:59;;;;;;;63.53;15.40;;;22.80;44.30;;;;;;5093266;28;20425;-77
2021/06/27 06:09:25;;;;;;;64.37;17.13;;;23.40;37.60;;;;;;5087157;28;20467;-78
2021/06/27 06:11:53;;;;;;;66.27;16.80;;;23.40;33.10;;;;;;5073249;28;20466;-78
2021/06/27 06:14:20;;;;;;;64.97;19.20;;;23.60;32.90;;;;;;5073166;28;20453;-77
2021/06/27 06:16:47;;;;;;;68.40;24.20;;;23.80;31.00;;;;;;5072899;28;20451;-78
2021/06/27 06:19:18;;;;;;;65.70;19.30;;;23.80;28.50;;;;;;5072848;28;20495;-77
2021/06/27 06:21:45;;;;;;;72.97;37.13;;;23.80;27.50;;;;;;5072845;28;20504;-76
2021/06/27 06:24:11;;;;;;;69.07;22.30;;;23.80;28.30;;;;;;5071731;28;20461;-77
2021/06/27 06:26:38;;;;;;;66.13;20.50;;;23.60;28.60;;;;;;5072984;28;20964;-80
2021/06/27 06:29:06;;;;;;;64.73;20.87;;;23.60;27.90;;;;;;5072719;28;20455;-76
2021/06/27 06:31:33;;;;;;;62.67;19.30;;;23.60;27.80;;;;;;5072686;28;20438;-79
2021/06/27 06:34:00;;;;;;;64.67;22.80;;;23.50;29.50;;;;;;5072811;28;20490;-75
2021/06/27 06:36:27;;;;;;;63.23;23.83;;;23.50;30.10;;;;;;5072543;28;20933;-78
2021/06/27 06:38:54;;;;;;;65.80;33.23;;;23.30;29.40;;;;;;5071753;28;20534;-77
2021/06/27 06:41:21;;;;;;;63.90;20.43;;;23.40;27.60;;;;;;5072700;28;20453;-77
2021/06/27 06:43:48;;;;;;;63.10;20.20;;;23.10;27.90;;;;;;5072603;28;20979;-78
2021/06/27 06:46:16;;;;;;;63.83;19.53;;;23.20;29.30;;;;;;5072722;28;20451;-76
2021/06/27 06:48:43;;;;;;;61.00;17.50;;;22.90;30.40;;;;;;5072495;28;20451;-76
2021/06/27 06:51:10;;;;;;;61.80;18.60;;;23.10;29.30;;;;;;5072393;28;20493;-78
2021/06/27 06:53:37;;;;;;;63.47;18.57;;;22.90;29.10;;;;;;5072523;28;20459;-81
2021/06/27 06:56:04;;;;;;;60.00;17.60;;;23.00;29.20;;;;;;5071348;28;20541;-80
2021/06/27 06:58:31;;;;;;;59.83;16.63;;;23.00;29.10;;;;;;5072491;28;20467;-80
2021/06/27 07:00:58;;;;;;;61.97;17.77;;;22.90;29.80;;;;;;5072672;28;20541;-79
2021/06/27 07:03:27;;;;;;;62.40;17.60;;;22.70;31.10;;;;;;5072516;28;20548;-79
2021/06/27 07:05:53;;;;;;;57.43;14.20;;;22.30;31.80;;;;;;5072426;28;20841;-80
2021/06/27 07:08:23;;;;;;;57.17;15.27;;;22.40;36.00;;;;;;5072650;28;21020;-79
2021/06/27 07:10:50;;;;;;;56.50;13.83;;;22.30;37.40;;;;;;5074575;28;20479;-78
2021/06/27 07:13:16;;;;;;;59.27;14.33;;;22.30;37.40;;;;;;5076284;28;20450;-79
2021/06/27 07:15:43;;;;;;;57.43;16.53;;;22.30;37.40;;;;;;5076406;28;20881;-78
2021/06/27 07:18:10;;;;;;;60.10;14.73;;;22.50;35.60;;;;;;5076334;28;20458;-79
2021/06/27 07:20:41;;;;;;;58.40;12.30;;;22.90;38.00;;;;;;5074425;28;20538;-80
2021/06/27 07:23:08;;;;;;;60.40;18.03;;;23.60;35.20;;;;;;5074719;28;20996;-81
2021/06/27 07:25:35;;;;;;;65.50;28.20;;;24.10;30.90;;;;;;5073676;28;20458;-81
2021/06/27 07:28:02;;;;;;;66.77;27.13;;;24.40;27.00;;;;;;5084732;28;20442;-81
2021/06/27 07:30:29;;;;;;;67.27;29.37;;;25.00;26.10;;;;;;5094753;28;20513;-80
2021/06/27 07:32:56;;;;;;;65.20;20.17;;;25.30;23.50;;;;;;5094810;28;20478;-80
2021/06/27 07:35:23;;;;;;;68.57;18.37;;;25.50;20.90;;;;;;5094833;28;20969;-81
2021/06/27 07:37:52;;;;;;;65.20;15.93;;;25.80;20.10;;;;;;5095057;28;20536;-82
2021/06/27 07:40:22;;;;;;;67.67;21.37;;;26.20;16.90;;;;;;5093835;28;20567;-84
2021/06/27 07:42:50;;;;;;;68.70;23.97;;;26.30;14.40;;;;;;5095265;28;20482;-82
2021/06/27 07:45:17;;;;;;;67.47;20.97;;;26.40;15.10;;;;;;5094611;28;20503;-84
2021/06/27 07:47:44;;;;;;;67.77;27.90;;;26.40;14.70;;;;;;5094793;28;20793;-82
2021/06/27 07:50:12;;;;;;;67.03;19.80;;;26.90;15.40;;;;;;5095076;28;20472;-87
2021/06/27 07:52:39;;;;;;;70.00;19.60;;;26.90;13.10;;;;;;5095105;28;20477;-82
2021/06/27 07:55:30;;;;;;;67.50;21.30;;;27.00;15.70;;;;;;5094677;28;20914;-90
2021/06/27 07:58:01;;;;;;;67.40;21.97;;;27.30;12.80;;;;;;5065188;28;20537;-86
2021/06/27 08:00:29;;;;;;;67.32;20.75;;;27.50;12.70;;;;;;5095824;28;20665;-83
2021/06/27 08:02:58;;;;;;;69.87;24.13;;;27.40;10.10;;;;;;5095860;28;20218;-85
2021/06/27 08:05:25;;;;;;;72.83;27.13;;;27.60;10.90;;;;;;5095449;28;20509;-83
2021/06/27 08:07:52;;;;;;;68.00;23.80;;;28.20;9.50;;;;;;5095073;28;20428;-81
2021/06/27 08:10:19;;;;;;;67.83;23.73;;;28.30;7.80;;;;;;5093921;28;20450;-81
2021/06/27 08:12:47;;;;;;;70.17;26.83;;;28.30;7.70;;;;;;5095323;28;20430;-82
2021/06/27 08:15:19;;;;;;;73.27;38.57;;;28.50;5.70;;;;;;5095435;28;20503;-84
2021/06/27 08:17:47;;;;;;;74.00;40.70;;;28.80;5.60;;;;;;5095381;28;20462;-82
2021/06/27 08:20:14;;;;;;;73.47;40.37;;;28.90;6.20;;;;;;5095204;28;20552;-83
2021/06/27 08:22:42;;;;;;;77.50;41.90;;;28.50;3.80;;;;;;5094774;28;20484;-81
2021/06/27 08:25:09;;;;;;;73.70;39.07;;;28.70;4.30;;;;;;5093916;28;20953;-81
2021/06/27 08:27:36;;;;;;;75.07;33.93;;;28.80;4.60;;;;;;5095133;28;20460;-83
2021/06/27 08:30:08;;;;;;;74.27;37.53;;;28.40;2.50;;;;;;5095022;28;21030;-82
2021/06/27 08:32:35;;;;;;;72.17;35.50;;;28.60;5.20;;;;;;5095282;28;20863;-83
2021/06/27 08:35:02;;;;;;;74.07;40.30;;;28.50;4.10;;;;;;5094977;28;20574;-86
2021/06/27 08:37:29;;;;;;;71.57;36.70;;;29.00;2.50;;;;;;5094828;28;20449;-82
2021/06/27 08:39:55;;;;;;;71.77;33.13;;;29.10;2.50;;;;;;5093725;28;20482;-82
2021/06/27 08:42:23;;;;;;;72.27;36.63;;;29.30;2.70;;;;;;5094794;28;20542;-82
2021/06/27 08:44:50;;;;;;;82.07;35.80;;;29.30;1.00;;;;;;5094892;28;20514;-81
2021/06/27 08:47:19;;;;;;;70.97;31.80;;;29.10;1.60;;;;;;5094790;28;20447;-82
2021/06/27 08:49:47;;;;;;;70.33;29.90;;;28.80;2.40;;;;;;5094703;28;20484;-81
2021/06/27 08:52:16;;;;;;;71.30;33.60;;;29.30;1.00;;;;;;5094599;28;20453;-84
2021/06/27 08:54:44;;;;;;;71.27;33.97;;;29.40;1.00;;;;;;5092918;28;20808;-81
2021/06/27 08:57:12;;;;;;;72.40;36.83;;;29.60;1.00;;;;;;5094735;28;20795;-81
2021/06/27 08:59:39;;;;;;;72.60;34.87;;;30.10;1.00;;;;;;5094247;28;20464;-80
2021/06/27 09:02:08;;;;;;;73.83;34.50;;;30.00;2.20;;;;;;5094755;28;20488;-81
2021/06/27 09:04:37;;;;;;;72.20;35.03;;;29.80;1.00;;;;;;5094097;28;20977;-83
2021/06/27 09:07:32;;;;;;;72.50;28.27;;;29.70;1.00;;;;;;5094420;28;20547;-82
2021/06/27 09:10:04;;;;;;;68.60;24.53;;;29.60;1.00;;;;;;5056876;28;20964;-82
2021/06/27 09:12:51;;;;;;;69.07;24.20;;;29.50;1.00;;;;;;5094489;28;20420;-82
2021/06/27 09:15:36;;;;;;;69.00;22.77;;;29.90;1.20;;;;;;5094250;28;20945;-80
2021/06/27 09:18:07;;;;;;;72.00;19.47;;;29.50;1.00;;;;;;5094142;28;20451;-84
2021/06/27 09:20:35;;;;;;;67.30;18.43;;;29.40;1.00;;;;;;5094205;28;20462;-82
2021/06/27 09:23:03;;;;;;;68.37;19.07;;;29.80;1.00;;;;;;5094027;28;20544;-84
2021/06/27 09:25:31;;;;;;;67.03;19.50;;;28.70;1.00;;;;;;5092724;28;20531;-84
2021/06/27 09:28:13;;;;;;;68.73;18.90;;;29.10;1.00;;;;;;5094194;28;20492;-83
2021/06/27 09:30:44;;;;;;;66.80;17.17;;;29.40;1.00;;;;;;5093722;28;20517;-84
2021/06/27 09:33:13;;;;;;;66.13;18.37;;;29.00;1.00;;;;;;5092934;28;20534;-84
2021/06/27 09:35:52;;;;;;;66.27;17.20;;;28.80;1.00;;;;;;5093766;28;20460;-84
2021/06/27 09:38:40;;;;;;;67.40;19.17;;;29.50;1.00;;;;;;5093778;28;20792;-85
2021/06/27 09:41:14;;;;;;;68.93;18.10;;;29.50;1.00;;;;;;5092458;28;20994;-87
2021/06/27 09:43:48;;;;;;;66.00;17.90;;;29.70;1.00;;;;;;5093783;28;20880;-86
2021/06/27 09:46:15;;;;;;;67.23;21.50;;;30.00;1.00;;;;;;5093621;28;20515;-86
2021/06/27 09:48:53;;;;;;;67.50;23.27;;;30.20;1.00;;;;;;5093579;28;20507;-85
2021/06/27 09:51:24;;;;;;;69.13;24.30;;;30.00;1.00;;;;;;5093577;28;20829;-84
2021/06/27 09:53:51;;;;;;;71.37;26.73;;;30.60;1.00;;;;;;5093519;28;20534;-84
2021/06/27 09:56:19;;;;;;;69.63;26.10;;;30.50;1.00;;;;;;5092712;28;20428;-84
2021/06/27 09:58:57;;;;;;;70.77;28.60;;;31.10;1.00;;;;;;5093292;28;20545;-84
2021/06/27 10:01:25;;;;;;;72.90;32.30;;;31.00;1.00;;;;;;5093402;28;20567;-84
2021/06/27 10:03:54;;;;;;;72.87;32.23;;;31.00;1.00;;;;;;5093388;28;20446;-84
2021/06/27 10:06:24;;;;;;;72.37;36.33;;;31.70;1.00;;;;;;5093287;28;20452;-86
2021/06/27 10:08:51;;;;;;;75.07;40.83;;;32.20;1.00;;;;;;5093263;28;20495;-84
2021/06/27 10:11:20;;;;;;;75.13;40.47;;;32.70;1.00;;;;;;5072063;28;20516;-85
2021/06/27 10:13:49;;;;;;;76.60;42.80;;;33.40;1.00;;;;;;5072955;28;20425;-85
2021/06/27 10:16:28;;;;;;;75.20;44.97;;;33.60;1.00;;;;;;5074651;28;20984;-87
2021/06/27 10:18:54;;;;;;;72.00;34.40;;;34.00;1.00;;;;;;5093221;28;20545;-81
2021/06/27 10:21:23;;;;;;;69.97;22.17;;;33.70;1.00;;;;;;5092952;28;20459;-83
2021/06/27 10:23:51;;;;;;;69.97;27.30;;;32.00;1.00;;;;;;5092883;28;20435;-82
2021/06/27 10:26:19;;;;;;;71.57;33.23;;;32.30;1.00;;;;;;5091854;28;20939;-82
2021/06/27 10:28:47;;;;;;;73.47;34.23;;;32.70;1.00;;;;;;5093105;28;20935;-81
2021/06/27 10:31:15;;;;;;;67.13;19.47;;;32.50;1.00;;;;;;5093475;28;20462;-81
2021/06/27 10:33:43;;;;;;;74.30;40.87;;;32.10;1.00;;;;;;5093053;28;20456;-79
2021/06/27 10:36:12;;;;;;;70.50;29.97;;;33.50;1.00;;;;;;5092997;28;20507;-80
2021/06/27 10:38:46;;;;;;;68.40;22.53;;;33.70;1.00;;;;;;5093271;28;20516;-78
2021/06/27 10:41:14;;;;;;;70.50;28.50;;;33.80;1.00;;;;;;5091961;28;20505;-77
2021/06/27 10:44:04;;;;;;;67.20;20.37;;;33.70;1.00;;;;;;5093251;28;20424;-80
2021/06/27 10:46:42;;;;;;;66.97;17.77;;;33.60;1.00;;;;;;5097686;28;20528;-80
2021/06/27 10:49:44;;;;;;;66.10;12.33;;;34.10;1.00;;;;;;5097542;28;20466;-78
2021/06/27 10:52:12;;;;;;;67.87;18.00;;;33.40;1.00;;;;;;5095398;28;20475;-79
2021/06/27 10:54:42;;;;;;;77.33;37.03;;;32.70;1.00;;;;;;5095894;28;20464;-78
2021/06/27 10:57:11;;;;;;;81.93;32.33;;;31.90;1.00;;;;;;5096670;28;20545;-77
2021/06/27 10:59:57;;;;;;;74.40;37.20;;;32.80;1.00;;;;;;5097036;28;20456;-78
2021/06/27 11:02:39;;;;;;;74.33;36.77;;;33.70;1.00;;;;;;5096804;28;20547;-79
2021/06/27 11:05:39;;;;;;;72.40;31.47;;;34.90;1.00;;;;;;5096416;28;20436;-77
2021/06/27 11:08:07;;;;;;;77.00;33.27;;;34.90;1.00;;;;;;5034271;28;20483;-78
2021/06/27 11:10:36;;;;;;;73.50;33.93;;;33.50;1.00;;;;;;5082217;28;20420;-82
2021/06/27 11:13:16;;;;;;;73.00;34.30;;;33.90;1.00;;;;;;5096791;28;20458;-82
2021/06/27 11:16:09;;;;;;;71.03;28.13;;;34.10;1.00;;;;;;5096465;28;20420;-82
2021/06/27 11:18:38;;;;;;;69.07;19.20;;;34.70;1.00;;;;;;5096403;28;20528;-82
2021/06/27 11:21:25;;;;;;;70.97;27.00;;;33.00;1.00;;;;;;5096379;28;20554;-81
2021/06/27 11:24:05;;;;;;;71.40;26.50;;;32.10;1.00;;;;;;5085238;28;20456;-81
2021/06/27 11:26:51;;;;;;;75.00;37.07;;;32.70;1.00;;;;;;5096550;28;20460;-80
2021/06/27 11:29:40;;;;;;;71.40;29.47;;;34.40;1.00;;;;;;5096353;28;20454;-80
2021/06/27 11:32:44;;;;;;;69.27;24.03;;;35.30;1.00;;;;;;5096484;28;20508;-81
2021/06/27 11:35:12;;;;;;;71.57;30.60;;;35.30;1.00;;;;;;5096291;28;20793;-81
2021/06/27 11:37:44;;;;;;;72.27;32.07;;;34.70;1.00;;;;;;5096427;28;20557;-81
2021/06/27 11:40:12;;;;;;;74.13;37.63;;;34.60;1.00;;;;;;5095075;28;20431;-82
2021/06/27 11:42:51;;;;;;;71.47;29.07;;;36.30;1.00;;;;;;5096126;28;20492;-82
2021/06/27 11:45:42;;;;;;;69.00;21.93;;;36.50;1.00;;;;;;5096120;28;20452;-82
2021/06/27 11:48:09;;;;;;;68.77;17.67;;;36.60;1.00;;;;;;5095987;28;20518;-81
2021/06/27 11:50:38;;;;;;;69.00;19.87;;;35.80;1.00;;;;;;5095911;28;20822;-82
2021/06/27 11:53:07;;;;;;;75.80;35.43;;;33.80;1.00;;;;;;5095815;28;20416;-80
2021/06/27 11:55:37;;;;;;;77.23;43.97;;;33.10;1.00;;;;;;5093431;28;20453;-81
2021/06/27 11:58:08;;;;;;;76.90;47.13;;;33.90;1.00;;;;;;5095687;28;20924;-81
2021/06/27 12:00:37;;;;;;;77.97;48.53;;;33.50;1.00;;;;;;5095657;28;20452;-82
2021/06/27 12:25:39;;;;;;;81.57;43.30;;;33.30;1.00;;;;;;4724705;30;20448;-84
2021/06/27 12:28:14;;;;;;;74.67;38.97;;;32.60;1.00;;;;;;4942937;28;20480;-84
2021/06/27 12:33:40;;;;;;;74.63;36.67;;;31.80;1.00;;;;;;5074818;28;20509;-83
2021/06/27 12:36:17;;;;;;;73.23;33.47;;;31.20;1.00;;;;;;5074865;28;20909;-83
2021/06/27 12:42:33;;;;;;;72.30;33.73;;;31.80;1.00;;;;;;4975125;28;20718;-83
2021/06/27 12:45:17;;;;;;;71.63;31.80;;;32.60;1.00;;;;;;4991839;28;20504;-83
2021/06/27 12:47:47;;;;;;;73.67;33.70;;;32.60;1.00;;;;;;5093483;28;20429;-83
2021/06/27 12:50:19;;;;;;;74.00;37.23;;;32.60;1.00;;;;;;5093448;28;20444;-83
2021/06/27 12:52:50;;;;;;;73.87;37.30;;;32.70;1.00;;;;;;5093510;28;20457;-83
2021/06/27 12:55:22;;;;;;;74.23;37.47;;;32.90;1.00;;;;;;5093195;28;20463;-82
2021/06/27 12:58:06;;;;;;;83.67;38.60;;;33.00;1.00;;;;;;5093801;28;20470;-83
2021/06/27 13:00:34;;;;;;;74.70;37.10;;;33.40;1.00;;;;;;5093937;28;20453;-82
2021/06/27 13:03:18;;;;;;;75.17;39.57;;;33.20;1.00;;;;;;5093599;28;20478;-83
2021/06/27 13:06:00;;;;;;;76.27;39.30;;;33.20;1.00;;;;;;5093764;28;20491;-83
2021/06/27 13:08:28;;;;;;;76.07;40.50;;;33.20;1.00;;;;;;5093440;28;20519;-83